createdAt,value
2023-01-06T00:00:29.716Z,32.00
2023-01-06T00:02:56.223Z,39.47
2023-01-06T00:05:22.792Z,35.50
2023-01-06T00:07:50.484Z,35.78
2023-01-06T00:10:17.063Z,32.85
2023-01-06T00:12:47.195Z,32.25
2023-01-06T00:15:13.766Z,29.52
2023-01-06T00:17:40.290Z,30.55
2023-01-06T00:20:07.383Z,32.65
2023-01-06T00:22:33.944Z,34.05
2023-01-06T00:25:00.569Z,29.13
2023-01-06T00:27:27.060Z,26.70
2023-01-06T00:29:53.588Z,27.05
2023-01-06T00:32:20.100Z,26.38
2023-01-06T00:34:46.564Z,29.30
2023-01-06T00:37:13.350Z,31.02
2023-01-06T00:39:40.084Z,29.65
2023-01-06T00:42:06.903Z,27.92
2023-01-06T00:44:35.153Z,27.50
2023-01-06T00:47:02.088Z,27.58
2023-01-06T00:49:28.611Z,30.30
2023-01-06T00:51:55.169Z,28.92
2023-01-06T00:54:21.692Z,29.52
2023-01-06T00:56:50.105Z,29.98
2023-01-06T00:59:19.924Z,27.48
2023-01-06T01:01:47.173Z,30.25
2023-01-06T01:04:14.012Z,30.45
2023-01-06T01:06:41.677Z,28.92
2023-01-06T01:09:08.214Z,34.22
2023-01-06T01:11:53.251Z,999.90
2023-01-06T01:14:20.232Z,999.90
2023-01-06T01:16:46.752Z,999.90
2023-01-06T01:19:13.293Z,999.90
2023-01-06T01:21:39.811Z,999.90
2023-01-06T01:24:07.029Z,999.90
2023-01-06T01:26:33.506Z,999.90
2023-01-06T01:29:00.699Z,278.52
2023-01-06T01:31:27.315Z,283.00
2023-01-06T01:33:53.824Z,38.75
2023-01-06T01:36:20.499Z,38.75
2023-01-06T01:38:46.972Z,34.05
2023-01-06T01:41:16.275Z,32.97
2023-01-06T01:44:21.767Z,37.70
2023-01-06T01:46:48.238Z,38.13
2023-01-06T01:49:24.341Z,999.90
2023-01-06T01:51:51.342Z,36.60
2023-01-06T01:54:21.495Z,38.53
2023-01-06T01:56:49.876Z,39.90
2023-01-06T01:59:17.831Z,36.30
2023-01-06T02:01:45.021Z,40.35
2023-01-06T02:04:11.560Z,32.55
2023-01-06T02:06:38.045Z,41.83
2023-01-06T02:09:25.693Z,56.58
2023-01-06T02:11:52.506Z,62.33
2023-01-06T02:14:20.928Z,58.53
2023-01-06T02:16:57.704Z,57.92
2023-01-06T02:19:43.181Z,54.83
2023-01-06T02:23:00.615Z,46.97
2023-01-06T02:25:32.853Z,40.33
2023-01-06T02:28:14.491Z,42.50
2023-01-06T02:31:10.253Z,37.90
2023-01-06T02:33:41.697Z,38.22
2023-01-06T02:36:20.698Z,38.20
2023-01-06T02:39:10.851Z,43.20
2023-01-06T02:42:20.551Z,33.72
2023-01-06T02:44:58.948Z,36.20
2023-01-06T02:47:35.171Z,33.92
2023-01-06T02:50:18.396Z,33.55
2023-01-06T02:53:06.370Z,36.72
2023-01-06T02:55:38.070Z,36.00
2023-01-06T02:58:14.008Z,33.83
2023-01-06T03:00:43.039Z,36.30
2023-01-06T03:03:10.964Z,34.10
2023-01-06T03:05:37.462Z,78.45
2023-01-06T03:08:09.093Z,80.20
2023-01-06T03:10:35.583Z,88.07
2023-01-06T03:13:06.661Z,82.38
2023-01-06T03:15:33.172Z,64.03
2023-01-06T03:17:59.642Z,68.35
2023-01-06T03:20:26.117Z,75.20
2023-01-06T03:22:52.579Z,52.38
2023-01-06T03:25:19.054Z,47.85
2023-01-06T03:27:45.537Z,48.92
2023-01-06T03:30:12.384Z,42.00
2023-01-06T03:32:53.413Z,35.97
2023-01-06T03:35:22.011Z,32.50
2023-01-06T03:37:59.435Z,30.48
2023-01-06T03:40:35.724Z,30.10
2023-01-06T03:43:16.468Z,33.35
2023-01-06T03:46:01.347Z,31.50
2023-01-06T03:48:55.504Z,34.90
2023-01-06T03:51:44.236Z,31.27
2023-01-06T03:54:35.409Z,174.43
2023-01-06T03:57:07.871Z,29.38
2023-01-06T03:59:37.462Z,26.70
2023-01-06T04:02:05.625Z,27.25
2023-01-06T04:04:32.088Z,26.25
2023-01-06T04:06:58.571Z,27.05
2023-01-06T04:09:25.061Z,27.52
2023-01-06T04:12:10.236Z,28.65
2023-01-06T04:14:36.775Z,31.65
2023-01-06T04:17:03.256Z,31.20
2023-01-06T04:19:29.725Z,26.25
2023-01-06T04:21:56.204Z,26.83
2023-01-06T04:24:22.681Z,28.65
2023-01-06T04:26:49.161Z,25.27
2023-01-06T04:29:15.683Z,20.92
2023-01-06T04:31:42.191Z,21.90
2023-01-06T04:34:08.761Z,21.35
2023-01-06T04:36:35.262Z,20.33
2023-01-06T04:39:01.878Z,20.23
2023-01-06T04:41:28.403Z,23.95
2023-01-06T04:43:57.828Z,26.85
2023-01-06T04:46:24.506Z,21.88
2023-01-06T04:48:51.225Z,21.70
2023-01-06T04:51:17.738Z,21.90
2023-01-06T04:53:44.203Z,22.40
2023-01-06T04:56:11.587Z,22.05
2023-01-06T04:58:38.189Z,24.67
2023-01-06T05:01:06.773Z,25.95
2023-01-06T05:03:33.497Z,30.35
2023-01-06T05:06:04.095Z,999.90
2023-01-06T05:08:31.221Z,999.90
2023-01-06T05:11:01.620Z,562.25
2023-01-06T05:13:28.911Z,148.93
2023-01-06T05:15:55.396Z,214.98
2023-01-06T05:18:21.852Z,565.15
2023-01-06T05:20:52.123Z,354.40
2023-01-06T05:25:44.932Z,30.10
2023-01-06T05:28:11.393Z,35.50
2023-01-06T05:30:37.908Z,37.95
2023-01-06T05:33:04.383Z,38.45
2023-01-06T05:35:30.944Z,28.33
2023-01-06T05:37:57.404Z,46.30
2023-01-06T05:40:23.954Z,33.95
2023-01-06T05:42:54.716Z,31.80
2023-01-06T05:45:21.852Z,36.90
2023-01-06T05:47:48.358Z,37.40
2023-01-06T05:50:14.857Z,54.90
2023-01-06T05:52:41.339Z,35.20
2023-01-06T05:55:08.271Z,41.20
2023-01-06T05:57:35.360Z,41.20
2023-01-06T06:00:05.459Z,34.10
2023-01-06T06:02:32.020Z,30.42
2023-01-06T06:04:58.511Z,30.70
2023-01-06T06:07:25.005Z,28.52
2023-01-06T06:09:51.482Z,32.67
2023-01-06T06:12:17.974Z,43.90
2023-01-06T06:14:44.463Z,43.60
2023-01-06T06:17:10.967Z,28.73
2023-01-06T06:19:37.468Z,28.88
2023-01-06T06:22:04.272Z,36.47
2023-01-06T06:24:30.748Z,38.00
2023-01-06T06:26:57.232Z,37.22
2023-01-06T06:29:23.692Z,57.50
2023-01-06T06:31:50.212Z,41.95
2023-01-06T06:34:16.748Z,71.88
2023-01-06T06:36:43.263Z,32.45
2023-01-06T06:39:10.040Z,35.60
2023-01-06T06:41:36.578Z,28.40
2023-01-06T06:44:03.981Z,32.28
2023-01-06T06:46:30.755Z,25.25
2023-01-06T06:48:57.554Z,24.90
2023-01-06T06:51:24.346Z,31.85
2023-01-06T06:53:50.940Z,30.50
2023-01-06T06:56:18.079Z,30.67
2023-01-06T06:58:44.701Z,27.05
2023-01-06T07:01:12.789Z,23.58
2023-01-06T07:03:39.470Z,22.15
2023-01-06T07:06:07.372Z,30.00
2023-01-06T07:08:34.159Z,30.13
2023-01-06T07:11:00.789Z,26.65
2023-01-06T07:13:27.736Z,28.83
2023-01-06T07:15:54.267Z,24.80
2023-01-06T07:18:21.826Z,21.85
2023-01-06T07:20:49.973Z,19.27
2023-01-06T07:23:16.873Z,38.97
2023-01-06T07:25:43.351Z,51.72
2023-01-06T07:28:09.905Z,59.38
2023-01-06T07:30:36.517Z,145.48
2023-01-06T07:33:03.589Z,88.22
2023-01-06T07:35:30.064Z,46.55
2023-01-06T07:38:02.428Z,26.92
2023-01-06T07:40:28.909Z,25.02
2023-01-06T07:42:55.412Z,31.33
2023-01-06T07:45:21.936Z,72.25
2023-01-06T07:47:48.462Z,58.13
2023-01-06T07:50:15.252Z,27.40
2023-01-06T07:52:41.730Z,27.38
2023-01-06T07:55:08.440Z,53.97
2023-01-06T07:57:35.806Z,34.60
2023-01-06T08:00:02.398Z,207.68
2023-01-06T08:02:28.984Z,39.83
2023-01-06T08:04:55.531Z,47.80
2023-01-06T08:07:22.068Z,23.67
2023-01-06T08:09:48.542Z,53.95
2023-01-06T08:12:15.034Z,118.35
2023-01-06T08:14:41.544Z,80.82
2023-01-06T08:17:08.318Z,35.58
2023-01-06T08:19:34.798Z,109.68
2023-01-06T08:22:01.280Z,39.45
2023-01-06T08:24:31.849Z,66.30
2023-01-06T08:26:59.179Z,47.55
2023-01-06T08:29:28.702Z,52.30
2023-01-06T08:32:05.720Z,48.45
2023-01-06T08:34:36.613Z,58.40
2023-01-06T08:37:03.126Z,137.10
2023-01-06T08:39:29.592Z,150.35
2023-01-06T08:41:56.206Z,95.93
2023-01-06T08:44:22.682Z,582.25
2023-01-06T08:46:49.233Z,29.05
2023-01-06T08:49:15.710Z,26.48
2023-01-06T08:51:42.259Z,28.13
2023-01-06T08:54:08.837Z,999.90
2023-01-06T08:56:35.384Z,999.90
2023-01-06T08:59:02.644Z,756.58
2023-01-06T09:01:31.043Z,27.60
2023-01-06T09:03:58.385Z,999.90
2023-01-06T09:06:24.948Z,999.90
2023-01-06T09:08:51.477Z,999.90
2023-01-06T09:11:18.028Z,999.90
2023-01-06T09:13:44.909Z,999.90
2023-01-06T09:16:11.597Z,999.90
2023-01-06T09:18:38.244Z,999.90
2023-01-06T09:21:05.204Z,999.90
2023-01-06T09:23:32.078Z,999.90
2023-01-06T09:25:58.587Z,999.90
2023-01-06T09:28:25.192Z,999.90
2023-01-06T09:30:51.742Z,999.90
2023-01-06T09:33:18.262Z,999.90
2023-01-06T09:35:45.105Z,999.90
2023-01-06T09:38:12.234Z,999.90
2023-01-06T09:40:44.551Z,999.90
2023-01-06T09:43:43.011Z,999.90
2023-01-06T09:46:09.603Z,999.90
2023-01-06T09:48:42.332Z,999.90
2023-01-06T09:51:09.225Z,999.90
2023-01-06T09:53:41.022Z,999.90
2023-01-06T09:56:10.126Z,999.90
2023-01-06T09:58:39.342Z,999.90
2023-01-06T10:01:11.273Z,999.90
2023-01-06T10:03:37.818Z,999.90
2023-01-06T10:06:28.141Z,999.90
2023-01-06T10:14:25.139Z,999.90
2023-01-06T10:17:01.403Z,999.90
2023-01-06T10:19:55.797Z,999.90
2023-01-06T10:23:10.334Z,999.90
2023-01-06T10:25:48.458Z,999.90
2023-01-06T10:28:38.653Z,999.90
2023-01-06T10:31:11.321Z,999.90
2023-01-06T10:33:40.799Z,999.90
2023-01-06T10:36:14.037Z,999.90
2023-01-06T10:38:42.509Z,999.90
2023-01-06T10:41:20.140Z,999.90
2023-01-06T10:43:46.629Z,999.90
2023-01-06T10:46:13.124Z,999.90
2023-01-06T10:48:39.625Z,999.90
2023-01-06T10:51:36.093Z,999.90
2023-01-06T10:54:05.875Z,999.90
2023-01-06T10:56:32.364Z,999.90
2023-01-06T10:59:02.934Z,999.90
2023-01-06T11:01:30.120Z,999.90
2023-01-06T11:04:13.050Z,999.90
2023-01-06T11:06:42.937Z,999.90
2023-01-06T11:09:29.080Z,999.90
2023-01-06T11:11:56.600Z,999.90
2023-01-06T11:14:26.516Z,999.90
2023-01-06T11:16:57.604Z,999.90
2023-01-06T11:19:32.750Z,999.90
2023-01-06T11:21:59.224Z,999.90
2023-01-06T11:24:26.325Z,999.90
2023-01-06T11:26:54.608Z,999.90
2023-01-06T11:29:26.687Z,999.90
2023-01-06T11:31:53.223Z,999.90
2023-01-06T11:34:22.405Z,999.90
2023-01-06T11:36:48.879Z,999.90
2023-01-06T11:39:21.660Z,999.90
2023-01-06T11:41:49.217Z,999.90
2023-01-06T11:44:31.550Z,999.90
2023-01-06T11:47:00.650Z,999.90
2023-01-06T11:49:33.778Z,999.90
2023-01-06T11:52:02.818Z,999.90
2023-01-06T11:54:39.394Z,999.90
2023-01-06T11:57:12.946Z,999.90
2023-01-06T11:59:56.772Z,999.90
2023-01-06T12:02:27.072Z,999.90
2023-01-06T12:07:38.069Z,999.90
2023-01-06T12:10:13.635Z,999.90
2023-01-06T12:12:40.118Z,999.90
2023-01-06T12:15:12.563Z,999.90
2023-01-06T12:17:51.145Z,999.90
2023-01-06T12:20:17.596Z,999.90
2023-01-06T12:22:48.564Z,999.90
2023-01-06T12:25:18.893Z,999.90
2023-01-06T12:30:41.025Z,999.90
2023-01-06T12:33:32.913Z,999.90
2023-01-06T12:36:04.901Z,999.90
2023-01-06T12:38:55.496Z,999.90
2023-01-06T12:41:27.802Z,999.90
2023-01-06T12:44:46.888Z,999.90
2023-01-06T12:47:19.451Z,999.90
2023-01-06T12:49:56.202Z,999.90
2023-01-06T12:52:30.186Z,999.90
2023-01-06T12:54:57.265Z,999.90
2023-01-06T12:57:50.556Z,999.90
2023-01-06T13:00:32.386Z,999.90
2023-01-06T13:03:10.040Z,999.90
2023-01-06T13:05:48.776Z,999.90
2023-01-06T13:08:37.086Z,999.90
2023-01-06T13:11:40.632Z,999.90
2023-01-06T13:14:22.731Z,999.90
2023-01-06T13:17:08.043Z,999.90
2023-01-06T13:19:49.816Z,999.90
2023-01-06T13:22:19.659Z,999.90
2023-01-06T13:25:25.195Z,999.90
2023-01-06T13:28:16.629Z,999.90
2023-01-06T13:30:46.728Z,999.90
2023-01-06T13:33:41.096Z,999.90
2023-01-06T13:36:19.729Z,999.90
2023-01-06T13:39:07.562Z,999.90
2023-01-06T13:41:36.130Z,999.90
2023-01-06T13:44:03.338Z,999.90
2023-01-06T13:46:29.887Z,999.90
2023-01-06T13:48:59.287Z,999.90
2023-01-06T13:51:29.111Z,999.90
2023-01-06T13:53:56.507Z,999.90
2023-01-06T13:56:24.646Z,999.90
2023-01-06T13:58:51.634Z,999.90
2023-01-06T14:01:21.145Z,999.90
2023-01-06T14:03:48.965Z,279.10
2023-01-06T14:06:21.384Z,999.90
2023-01-06T14:09:00.787Z,999.90
2023-01-06T14:11:37.750Z,999.90
2023-01-06T14:14:06.066Z,999.90
2023-01-06T14:16:46.960Z,999.90
2023-01-06T14:19:20.735Z,999.90
2023-01-06T14:21:48.261Z,999.90
2023-01-06T14:24:35.920Z,999.90
2023-01-06T14:27:07.024Z,999.90
2023-01-06T14:29:39.662Z,999.90
2023-01-06T14:32:06.999Z,31.15
2023-01-06T14:34:33.499Z,32.30
2023-01-06T14:36:59.974Z,30.88
2023-01-06T14:39:26.624Z,514.65
2023-01-06T14:41:57.073Z,33.42
2023-01-06T14:44:37.691Z,272.83
2023-01-06T14:47:11.395Z,999.90
2023-01-06T14:49:46.295Z,999.90
2023-01-06T14:52:21.843Z,999.90
2023-01-06T14:54:48.506Z,999.90
2023-01-06T14:57:26.512Z,999.90
2023-01-06T15:00:08.305Z,999.90
2023-01-06T15:02:35.184Z,999.90
2023-01-06T15:05:01.843Z,999.90
2023-01-06T15:07:28.325Z,999.90
2023-01-06T15:10:08.930Z,999.90
2023-01-06T15:12:35.422Z,999.90
2023-01-06T15:15:27.663Z,999.90
2023-01-06T15:17:55.043Z,999.90
2023-01-06T15:20:32.955Z,999.90
2023-01-06T15:23:00.400Z,999.90
2023-01-06T15:25:28.154Z,999.90
2023-01-06T15:27:55.681Z,999.90
2023-01-06T15:30:34.931Z,999.90
2023-01-06T15:33:01.440Z,999.90
2023-01-06T15:35:29.581Z,999.90
2023-01-06T15:38:03.461Z,999.90
2023-01-06T15:40:30.010Z,999.90
2023-01-06T15:42:56.620Z,999.90
2023-01-06T15:45:32.328Z,999.90
2023-01-06T15:48:00.861Z,999.90
2023-01-06T15:50:28.603Z,999.90
2023-01-06T15:53:04.097Z,999.90
2023-01-06T15:55:35.249Z,999.90
2023-01-06T15:58:06.476Z,999.90
2023-01-06T16:00:41.695Z,999.90
2023-01-06T16:03:20.521Z,999.90
2023-01-06T16:05:51.070Z,999.90
2023-01-06T16:08:24.940Z,999.90
2023-01-06T16:11:11.484Z,999.90
2023-01-06T16:13:37.946Z,999.90
2023-01-06T16:16:31.080Z,999.90
2023-01-06T16:18:57.569Z,999.90
2023-01-06T16:21:25.060Z,999.90
2023-01-06T16:23:58.404Z,999.90
2023-01-06T16:26:26.921Z,999.90
2023-01-06T16:28:54.712Z,999.90
2023-01-06T16:31:38.013Z,999.90
2023-01-06T16:34:24.137Z,999.90
2023-01-06T16:36:51.752Z,999.90
2023-01-06T16:39:18.303Z,999.90
2023-01-06T16:41:59.802Z,999.90
2023-01-06T16:44:30.407Z,999.90
2023-01-06T16:46:57.448Z,999.90
2023-01-06T16:49:23.972Z,999.90
2023-01-06T16:51:50.644Z,999.90
2023-01-06T16:54:20.180Z,999.90
2023-01-06T16:56:46.784Z,999.90
2023-01-06T16:59:14.872Z,999.90
2023-01-06T17:01:42.141Z,999.90
2023-01-06T17:04:10.980Z,999.90
2023-01-06T17:06:38.096Z,999.90
2023-01-06T17:09:15.135Z,999.90
2023-01-06T17:11:41.617Z,999.90
2023-01-06T17:14:15.932Z,999.90
2023-01-06T17:16:42.618Z,999.90
2023-01-06T17:19:22.267Z,999.90
2023-01-06T17:21:49.808Z,999.90
2023-01-06T17:24:26.017Z,999.90
2023-01-06T17:27:11.759Z,999.90
2023-01-06T17:29:38.286Z,999.90
2023-01-06T17:32:05.867Z,999.90
2023-01-06T17:34:33.678Z,999.90
2023-01-06T17:37:06.289Z,999.90
2023-01-06T17:39:37.294Z,999.90
2023-01-06T17:42:12.899Z,999.90
2023-01-06T17:44:48.511Z,999.90
2023-01-06T17:47:15.118Z,999.90
2023-01-06T17:49:41.729Z,999.90
2023-01-06T17:52:24.582Z,999.90
2023-01-06T17:55:13.594Z,999.90
2023-01-06T17:57:41.219Z,999.90
2023-01-06T18:00:34.445Z,999.90
2023-01-06T18:03:02.661Z,999.90
2023-01-06T18:05:30.639Z,999.90
2023-01-06T18:08:05.977Z,999.90
2023-01-06T18:10:36.166Z,999.90
2023-01-06T18:13:22.932Z,999.90
2023-01-06T18:15:56.959Z,999.90
2023-01-06T18:18:26.963Z,999.90
2023-01-06T18:20:53.827Z,999.90
2023-01-06T18:23:22.508Z,999.90
2023-01-06T18:25:50.955Z,999.90
2023-01-06T18:28:18.160Z,999.90
2023-01-06T18:30:46.351Z,999.90
2023-01-06T18:33:14.318Z,999.90
2023-01-06T18:35:40.862Z,999.90
2023-01-06T18:38:07.353Z,999.90
2023-01-06T18:40:33.906Z,999.90
2023-01-06T18:43:00.382Z,999.90
2023-01-06T18:45:27.549Z,999.90
2023-01-06T18:47:57.196Z,999.90
2023-01-06T18:50:31.373Z,999.90
2023-01-06T18:53:05.340Z,999.90
2023-01-06T18:55:41.682Z,999.90
2023-01-06T18:58:15.926Z,999.90
2023-01-06T19:00:45.930Z,999.90
2023-01-06T19:03:36.217Z,999.90
2023-01-06T19:08:35.604Z,999.90
2023-01-06T19:11:02.652Z,999.90
2023-01-06T19:13:29.261Z,999.90
2023-01-06T19:16:22.296Z,999.90
2023-01-06T19:18:48.799Z,999.90
2023-01-06T19:21:15.335Z,999.90
2023-01-06T19:23:41.858Z,999.90
2023-01-06T19:26:33.966Z,999.90
2023-01-06T19:29:01.855Z,999.90
2023-01-06T19:31:30.486Z,999.90
2023-01-06T19:33:58.873Z,999.90
2023-01-06T19:36:42.204Z,999.90
2023-01-06T19:39:19.376Z,999.90
2023-01-06T19:41:45.898Z,999.90
2023-01-06T19:44:13.429Z,999.90
2023-01-06T19:46:43.944Z,999.90
2023-01-06T19:49:17.509Z,999.90
2023-01-06T19:51:44.013Z,999.90
2023-01-06T19:54:10.335Z,999.90
2023-01-06T19:56:41.136Z,999.90
2023-01-06T19:59:24.356Z,999.90
2023-01-06T20:02:07.144Z,999.90
2023-01-06T20:04:33.788Z,999.90
2023-01-06T20:07:02.090Z,999.90
2023-01-06T20:09:30.086Z,999.90
2023-01-06T20:11:56.769Z,999.90
2023-01-06T20:14:23.244Z,999.90
2023-01-06T20:16:49.745Z,999.90
2023-01-06T20:19:16.262Z,999.90
2023-01-06T20:21:43.249Z,999.90
2023-01-06T20:24:10.527Z,999.90
2023-01-06T20:26:37.285Z,999.90
2023-01-06T20:29:04.412Z,999.90
2023-01-06T20:31:31.031Z,999.90
2023-01-06T20:33:57.661Z,999.90
2023-01-06T20:36:24.170Z,999.90
2023-01-06T20:38:50.641Z,999.90
2023-01-06T20:41:17.144Z,999.90
2023-01-06T20:43:43.600Z,999.90
2023-01-06T20:46:10.220Z,999.90
2023-01-06T20:48:37.741Z,999.90
2023-01-06T20:51:04.388Z,999.90
2023-01-06T20:53:30.905Z,999.90
2023-01-06T20:55:57.427Z,999.90
2023-01-06T20:58:24.423Z,999.90
2023-01-06T21:00:51.021Z,999.90
2023-01-06T21:03:17.581Z,999.90
2023-01-06T21:05:44.056Z,999.90
2023-01-06T21:08:10.533Z,999.90
2023-01-06T21:10:37.646Z,999.90
2023-01-06T21:13:04.367Z,999.90
2023-01-06T21:15:30.845Z,999.90
2023-01-06T21:17:57.378Z,999.90
2023-01-06T21:20:23.885Z,999.90
2023-01-06T21:22:50.344Z,999.90
2023-01-06T21:25:19.538Z,999.90
2023-01-06T21:27:46.120Z,999.90
2023-01-06T21:30:13.026Z,999.90
2023-01-06T21:32:39.541Z,999.90
2023-01-06T21:35:06.549Z,999.90
2023-01-06T21:37:33.219Z,999.90
2023-01-06T21:39:59.861Z,999.90
2023-01-06T21:42:44.803Z,999.90
2023-01-06T21:45:11.378Z,999.90
2023-01-06T21:47:37.859Z,999.90
2023-01-06T21:50:05.327Z,999.90
2023-01-06T21:52:32.011Z,999.90
2023-01-06T21:54:59.153Z,999.90
2023-01-06T21:57:25.770Z,999.90
2023-01-06T21:59:52.229Z,999.90
2023-01-06T22:02:18.900Z,999.90
2023-01-06T22:04:45.446Z,999.90
2023-01-06T22:07:11.980Z,757.00
2023-01-06T22:09:39.074Z,114.68
2023-01-06T22:12:05.860Z,423.50
2023-01-06T22:14:32.353Z,999.90
2023-01-06T22:17:00.684Z,999.90
2023-01-06T22:19:27.709Z,999.90
2023-01-06T22:21:54.187Z,999.90
2023-01-06T22:24:20.671Z,999.90
2023-01-06T22:26:47.152Z,999.90
2023-01-06T22:29:13.602Z,999.90
2023-01-06T22:31:40.094Z,999.90
2023-01-06T22:34:06.939Z,999.90
2023-01-06T22:36:33.693Z,999.90
2023-01-06T22:39:00.152Z,999.90
2023-01-06T22:41:26.682Z,999.90
2023-01-06T22:43:53.215Z,999.90
2023-01-06T22:46:19.748Z,999.90
2023-01-06T22:48:46.251Z,999.90
2023-01-06T22:51:12.714Z,999.90
2023-01-06T22:53:39.209Z,999.90
2023-01-06T22:56:07.939Z,999.90
2023-01-06T22:58:36.752Z,999.90
2023-01-06T23:01:03.519Z,999.90
2023-01-06T23:03:30.103Z,999.90
2023-01-06T23:06:04.875Z,999.90
2023-01-06T23:08:32.503Z,999.90
2023-01-06T23:11:00.440Z,999.90
2023-01-06T23:13:27.225Z,999.90
2023-01-06T23:16:08.342Z,999.90
2023-01-06T23:18:36.783Z,999.90
2023-01-06T23:21:08.053Z,999.90
2023-01-06T23:23:35.233Z,999.90
2023-01-06T23:26:15.954Z,999.90
2023-01-06T23:28:42.534Z,999.90
2023-01-06T23:31:17.313Z,999.90
2023-01-06T23:33:46.327Z,999.90
2023-01-06T23:36:14.524Z,999.90
2023-01-06T23:38:41.048Z,999.90
2023-01-06T23:41:12.577Z,999.90
2023-01-06T23:43:39.202Z,999.90
2023-01-06T23:46:07.742Z,999.90
2023-01-06T23:48:34.433Z,999.90
2023-01-06T23:51:00.954Z,999.90
2023-01-06T23:53:27.847Z,999.90
2023-01-06T23:55:58.964Z,999.90
2023-01-06T23:58:26.020Z,999.90
